Time;durP1;ratioP1;P1;durP2;ratioP2;P2;SDS_P1;SDS_P2;PMS_P1;PMS_P2;Temp;Humidity;BMP_temperature;BMP_pressure;BME280_temperature;BME280_humidity;BME280_pressure;Samples;Min_cycle;Max_cycle;Signal;HPM_P1;HPM_P2
2023/11/24 00:02:19;;;;;;;15.57;6.85;;;-5.50;99.90;;;;;;5083130;28;20049;-85
2023/11/24 00:04:45;;;;;;;12.40;8.55;;;-5.50;99.90;;;;;;5112364;28;20118;-84
2023/11/24 00:07:11;;;;;;;12.48;7.57;;;-5.50;99.90;;;;;;5134368;28;20023;-84
2023/11/24 00:09:37;;;;;;;17.52;7.75;;;-5.50;99.90;;;;;;5123656;28;20020;-83
2023/11/24 00:12:03;;;;;;;12.00;8.68;;;-5.50;99.90;;;;;;5100196;28;20039;-83
2023/11/24 00:14:29;;;;;;;13.73;8.35;;;-5.40;99.90;;;;;;5099501;28;20107;-83
2023/11/24 00:16:56;;;;;;;14.52;7.80;;;-5.40;99.90;;;;;;5095861;28;20143;-85
2023/11/24 00:19:22;;;;;;;19.13;8.48;;;-5.40;99.90;;;;;;5116276;28;20107;-84
2023/11/24 00:21:48;;;;;;;13.77;7.47;;;-5.40;99.90;;;;;;5102630;28;20090;-81
2023/11/24 00:24:14;;;;;;;13.10;7.90;;;-5.30;99.90;;;;;;5112021;28;20036;-82
2023/11/24 00:26:40;;;;;;;15.90;7.30;;;-5.30;99.90;;;;;;5117647;28;20019;-84
2023/11/24 00:29:06;;;;;;;11.55;6.80;;;-5.30;99.90;;;;;;5114578;28;20023;-84
2023/11/24 00:31:32;;;;;;;15.13;8.02;;;-5.30;99.90;;;;;;5094058;28;20414;-83
2023/11/24 00:33:58;;;;;;;10.52;7.40;;;-5.20;99.90;;;;;;5112166;28;20035;-84
2023/11/24 00:36:24;;;;;;;12.13;8.13;;;-5.20;99.90;;;;;;5105833;28;20462;-85
2023/11/24 00:38:50;;;;;;;12.13;7.20;;;-5.20;99.90;;;;;;5103606;28;20417;-85
2023/11/24 00:41:19;;;;;;;12.00;7.18;;;-5.10;99.90;;;;;;5109480;28;20020;-87
2023/11/24 00:43:47;;;;;;;17.80;7.10;;;-5.10;99.90;;;;;;5126781;28;20048;-84
2023/11/24 00:46:13;;;;;;;11.13;7.35;;;-5.10;99.90;;;;;;5129305;28;20404;-86
2023/11/24 00:48:39;;;;;;;16.10;7.15;;;-5.10;99.90;;;;;;5107549;28;20039;-85
2023/11/24 00:51:06;;;;;;;9.05;6.20;;;-5.10;99.90;;;;;;5128506;28;20056;-84
2023/11/24 00:53:35;;;;;;;12.82;7.68;;;-5.20;99.90;;;;;;5113267;28;20036;-84
2023/11/24 00:56:02;;;;;;;14.52;7.38;;;-5.20;99.90;;;;;;5101009;28;20035;-85
2023/11/24 00:58:28;;;;;;;15.55;8.50;;;-5.10;99.90;;;;;;5082202;28;20527;-84
2023/11/24 01:00:55;;;;;;;14.00;8.52;;;-5.10;99.90;;;;;;5096929;28;20524;-86
2023/11/24 01:03:26;;;;;;;14.80;10.15;;;-5.10;99.90;;;;;;5090074;28;20480;-85
2023/11/24 01:05:53;;;;;;;15.43;8.07;;;-5.10;99.90;;;;;;5115867;28;20027;-83
2023/11/24 01:08:20;;;;;;;15.82;9.45;;;-5.10;99.90;;;;;;5116015;28;20065;-85
2023/11/24 01:10:46;;;;;;;14.60;8.47;;;-5.00;99.90;;;;;;5116301;28;20020;-86
2023/11/24 01:13:13;;;;;;;11.60;7.97;;;-5.00;99.90;;;;;;5116328;28;20091;-86
2023/11/24 01:15:39;;;;;;;14.00;7.53;;;-4.90;99.90;;;;;;5116949;28;20031;-85
2023/11/24 01:18:06;;;;;;;18.00;9.80;;;-4.90;99.90;;;;;;5097759;28;20023;-86
2023/11/24 01:20:34;;;;;;;16.85;9.50;;;-5.00;99.90;;;;;;5116393;28;20019;-85
2023/11/24 01:23:00;;;;;;;10.18;7.47;;;-5.00;99.90;;;;;;5116395;28;20028;-86
2023/11/24 01:25:27;;;;;;;14.70;9.00;;;-5.00;99.90;;;;;;5115595;28;20051;-85
2023/11/24 01:27:53;;;;;;;17.55;10.20;;;-5.00;99.90;;;;;;5092758;28;20027;-84
2023/11/24 01:30:19;;;;;;;11.85;8.02;;;-4.90;99.90;;;;;;5114997;28;20032;-83
2023/11/24 01:32:45;;;;;;;13.63;8.45;;;-4.90;99.90;;;;;;5097431;28;20020;-84
2023/11/24 01:35:11;;;;;;;16.50;9.20;;;-4.90;99.90;;;;;;5101687;28;20083;-85
2023/11/24 01:37:36;;;;;;;16.58;9.30;;;-4.90;99.90;;;;;;5102260;28;20031;-84
2023/11/24 01:40:04;;;;;;;15.05;9.02;;;-4.90;99.80;;;;;;5115933;28;20020;-83
2023/11/24 01:42:34;;;;;;;26.73;10.43;;;-4.80;99.80;;;;;;5118236;28;20016;-84
2023/11/24 01:45:00;;;;;;;14.18;8.68;;;-4.90;99.70;;;;;;5108318;28;20044;-85
2023/11/24 01:47:25;;;;;;;13.98;8.88;;;-4.90;99.70;;;;;;5096888;28;20016;-85
2023/11/24 01:49:52;;;;;;;16.60;9.05;;;-4.90;99.80;;;;;;5108935;28;20020;-84
2023/11/24 01:52:19;;;;;;;14.98;9.50;;;-4.90;99.80;;;;;;5107813;28;20016;-85
2023/11/24 01:54:47;;;;;;;17.75;9.82;;;-4.90;99.80;;;;;;5120597;28;20020;-84
2023/11/24 01:57:13;;;;;;;16.45;9.40;;;-4.90;99.70;;;;;;5110505;28;20895;-85
2023/11/24 01:59:39;;;;;;;12.57;9.00;;;-4.90;99.70;;;;;;5105670;28;20065;-85
2023/11/24 02:02:06;;;;;;;11.38;7.55;;;-4.90;99.60;;;;;;5096270;28;20057;-84
2023/11/24 02:04:31;;;;;;;16.13;9.55;;;-4.80;99.60;;;;;;5114738;28;20019;-84
2023/11/24 02:06:58;;;;;;;16.05;9.23;;;-4.90;99.60;;;;;;5115701;28;20087;-85
2023/11/24 02:09:27;;;;;;;17.13;10.02;;;-4.90;99.70;;;;;;5098821;28;20092;-85
2023/11/24 02:11:52;;;;;;;14.13;8.88;;;-4.90;99.70;;;;;;5118387;28;20030;-86
2023/11/24 02:14:18;;;;;;;17.15;9.88;;;-4.90;99.70;;;;;;5123492;28;20019;-82
2023/11/24 02:16:44;;;;;;;16.50;10.23;;;-4.90;99.70;;;;;;5126419;28;20071;-85
2023/11/24 02:19:11;;;;;;;17.92;9.18;;;-4.90;99.50;;;;;;5137468;28;20059;-84
2023/11/24 02:21:37;;;;;;;15.18;9.02;;;-4.90;99.40;;;;;;5121518;28;20023;-85
2023/11/24 02:24:06;;;;;;;19.73;11.15;;;-4.90;99.40;;;;;;5117852;28;20043;-85
2023/11/24 02:26:32;;;;;;;17.38;10.25;;;-4.90;99.40;;;;;;5114591;28;20023;-84
2023/11/24 02:28:58;;;;;;;14.57;10.05;;;-4.90;99.40;;;;;;5114772;28;20039;-85
2023/11/24 02:31:23;;;;;;;15.93;9.70;;;-4.90;99.40;;;;;;5095753;28;20016;-84
2023/11/24 02:33:51;;;;;;;17.13;10.82;;;-4.90;99.40;;;;;;5114768;28;20030;-84
2023/11/24 02:36:20;;;;;;;16.50;9.73;;;-4.80;99.40;;;;;;5117244;27;20048;-82
2023/11/24 02:38:50;;;;;;;19.98;9.43;;;-4.80;99.30;;;;;;5095036;28;20095;-84
2023/11/24 02:41:16;;;;;;;15.13;9.38;;;-4.80;99.20;;;;;;5113894;28;20023;-84
2023/11/24 02:43:44;;;;;;;16.73;9.95;;;-4.80;99.20;;;;;;5113729;28;20054;-85
2023/11/24 02:46:14;;;;;;;21.60;10.45;;;-4.80;99.20;;;;;;5108609;28;20020;-85
2023/11/24 02:48:43;;;;;;;19.52;11.65;;;-4.80;99.20;;;;;;5095579;28;20503;-84
2023/11/24 02:51:10;;;;;;;20.45;11.02;;;-4.80;99.20;;;;;;5114548;28;20024;-84
2023/11/24 02:53:40;;;;;;;19.25;11.52;;;-4.80;99.20;;;;;;5101157;28;20030;-84
2023/11/24 02:56:07;;;;;;;17.65;10.10;;;-4.80;99.10;;;;;;5120199;28;20037;-86
2023/11/24 02:58:34;;;;;;;19.35;11.65;;;-4.80;99.20;;;;;;5114794;28;20027;-84
2023/11/24 03:01:00;;;;;;;18.23;10.97;;;-4.90;99.20;;;;;;5114738;28;20012;-83
2023/11/24 03:03:27;;;;;;;19.58;11.93;;;-4.90;99.30;;;;;;5113998;28;20024;-86
2023/11/24 03:05:54;;;;;;;;;;;-4.80;99.30;;;;;;5096299;28;20030;-85
2023/11/24 03:08:20;;;;;;;19.98;11.50;;;-4.80;99.20;;;;;;5107668;28;19908;-84
2023/11/24 03:10:46;;;;;;;18.30;11.23;;;-4.90;99.30;;;;;;5099929;27;20043;-83
2023/11/24 03:13:15;;;;;;;14.48;10.23;;;-4.90;99.40;;;;;;5096494;28;20070;-84
2023/11/24 03:15:42;;;;;;;17.58;11.23;;;-4.90;99.50;;;;;;5101247;28;20024;-84
2023/11/24 03:18:08;;;;;;;20.83;10.98;;;-4.90;99.60;;;;;;5119558;28;20026;-85
2023/11/24 03:20:34;;;;;;;18.65;11.07;;;-4.90;99.60;;;;;;5116719;28;20090;-83
2023/11/24 03:23:00;;;;;;;23.95;12.27;;;-4.90;99.50;;;;;;5129184;28;20031;-85
2023/11/24 03:25:27;;;;;;;16.83;10.70;;;-4.80;99.40;;;;;;5109456;28;20071;-83
2023/11/24 03:27:52;;;;;;;15.23;10.40;;;-4.90;99.30;;;;;;5115154;27;20023;-84
2023/11/24 03:30:18;;;;;;;20.23;11.98;;;-4.90;99.30;;;;;;5091964;28;20028;-85
2023/11/24 03:32:44;;;;;;;17.00;11.68;;;-4.90;99.40;;;;;;5090248;28;20028;-84
2023/11/24 03:35:10;;;;;;;17.90;10.63;;;-4.90;99.50;;;;;;5101278;28;20392;-82
2023/11/24 03:37:37;;;;;;;19.42;11.85;;;-4.90;99.60;;;;;;5115146;28;20024;-84
2023/11/24 03:40:05;;;;;;;16.15;10.52;;;-4.90;99.60;;;;;;5118281;28;20537;-82
2023/11/24 03:42:31;;;;;;;17.85;11.50;;;-4.90;99.60;;;;;;5098799;28;20028;-85
2023/11/24 03:44:57;;;;;;;21.83;11.75;;;-4.80;99.60;;;;;;5111471;28;20048;-85
2023/11/24 03:47:23;;;;;;;20.88;13.23;;;-4.80;99.60;;;;;;5115626;28;20023;-85
2023/11/24 03:49:49;;;;;;;20.77;12.60;;;-4.80;99.60;;;;;;5122572;28;20020;-84
2023/11/24 03:52:15;;;;;;;17.23;11.25;;;-4.80;99.80;;;;;;5099267;28;20096;-86
2023/11/24 03:54:41;;;;;;;17.33;12.05;;;-4.70;99.60;;;;;;5086749;28;20473;-86
2023/11/24 03:57:07;;;;;;;16.95;11.40;;;-4.80;99.60;;;;;;5090493;28;20027;-85
2023/11/24 03:59:33;;;;;;;16.85;11.10;;;-4.70;99.60;;;;;;5097819;28;20031;-85
2023/11/24 04:01:58;;;;;;;21.58;12.13;;;-4.70;99.60;;;;;;5101905;28;20031;-85
2023/11/24 04:04:24;;;;;;;20.38;10.65;;;-4.80;99.60;;;;;;5122284;28;20111;-84
2023/11/24 04:06:50;;;;;;;20.98;12.50;;;-4.70;99.70;;;;;;5105794;28;20020;-83
2023/11/24 04:09:16;;;;;;;20.38;11.70;;;-4.80;99.80;;;;;;5116808;28;20024;-84
2023/11/24 04:11:42;;;;;;;21.15;11.90;;;-4.80;99.90;;;;;;5090034;28;20023;-85
2023/11/24 04:14:08;;;;;;;19.95;12.80;;;-4.80;99.90;;;;;;5114400;28;20441;-84
2023/11/24 04:16:36;;;;;;;16.77;10.95;;;-4.80;99.90;;;;;;5112863;28;20112;-84
2023/11/24 04:19:02;;;;;;;21.13;12.95;;;-4.90;99.90;;;;;;5112911;28;20019;-84
2023/11/24 04:21:28;;;;;;;20.40;12.98;;;-4.80;99.90;;;;;;5113010;28;20114;-85
2023/11/24 04:23:54;;;;;;;20.50;12.65;;;-4.80;99.90;;;;;;5092461;28;20123;-84
2023/11/24 04:26:22;;;;;;;23.52;14.15;;;-4.80;99.90;;;;;;5114557;28;20488;-84
2023/11/24 04:28:48;;;;;;;28.40;12.90;;;-4.80;99.90;;;;;;5116792;28;20045;-83
2023/11/24 04:31:14;;;;;;;21.10;12.40;;;-4.80;99.90;;;;;;5118278;28;20020;-85
2023/11/24 04:33:40;;;;;;;22.92;14.25;;;-4.80;99.90;;;;;;5117288;28;20492;-85
2023/11/24 04:36:07;;;;;;;22.83;13.20;;;-4.70;99.90;;;;;;5126787;27;20023;-85
2023/11/24 04:38:36;;;;;;;22.17;12.90;;;-4.70;99.90;;;;;;5118804;27;20024;-84
2023/11/24 04:41:02;;;;;;;21.20;12.77;;;-4.70;99.90;;;;;;5097877;28;20059;-85
2023/11/24 04:43:28;;;;;;;22.30;12.77;;;-4.60;99.90;;;;;;5117182;28;20082;-84
2023/11/24 04:45:53;;;;;;;26.95;14.18;;;-4.60;99.90;;;;;;5097637;28;20028;-83
2023/11/24 04:48:19;;;;;;;21.85;13.48;;;-4.60;99.90;;;;;;5097503;28;20512;-85
2023/11/24 04:50:45;;;;;;;20.95;14.55;;;-4.60;99.90;;;;;;5121596;27;20145;-84
2023/11/24 04:53:11;;;;;;;21.42;12.88;;;-4.50;99.90;;;;;;5121139;27;20023;-84
2023/11/24 04:55:37;;;;;;;24.05;14.05;;;-4.60;99.80;;;;;;5115031;28;20020;-85
2023/11/24 04:58:03;;;;;;;23.40;15.25;;;-4.60;99.80;;;;;;5116025;28;20035;-86
2023/11/24 05:00:29;;;;;;;18.35;12.10;;;-4.60;99.80;;;;;;5114415;28;20032;-86
2023/11/24 05:02:54;;;;;;;20.30;13.23;;;-4.50;99.80;;;;;;5097309;28;20218;-89
2023/11/24 05:05:23;;;;;;;22.60;13.02;;;-4.50;99.80;;;;;;5117355;28;20028;-88
2023/11/24 05:07:49;;;;;;;19.20;13.40;;;-4.50;99.90;;;;;;5122342;27;20015;-87
2023/11/24 05:10:15;;;;;;;28.60;14.38;;;-4.50;99.90;;;;;;5101220;28;20081;-88
2023/11/24 05:12:41;;;;;;;22.23;15.60;;;-4.50;99.50;;;;;;5116501;28;20059;-88
2023/11/24 05:15:08;;;;;;;18.98;10.90;;;-4.60;99.10;;;;;;5098662;28;20012;-88
2023/11/24 05:17:38;;;;;;;21.25;13.38;;;-4.70;99.10;;;;;;5099597;28;20031;-87
2023/11/24 05:20:05;;;;;;;23.65;15.40;;;-4.90;99.30;;;;;;5100845;28;20068;-86
2023/11/24 05:22:31;;;;;;;20.58;15.63;;;-5.00;99.60;;;;;;5109115;28;20150;-85
2023/11/24 05:24:57;;;;;;;25.13;14.50;;;-5.00;99.80;;;;;;5103525;28;20023;-85
2023/11/24 05:27:24;;;;;;;27.48;14.57;;;-5.00;99.70;;;;;;5136072;28;20049;-85
2023/11/24 05:29:50;;;;;;;25.50;14.85;;;-5.00;99.80;;;;;;5118256;27;20081;-86
2023/11/24 05:32:16;;;;;;;29.55;15.55;;;-4.90;99.90;;;;;;5091929;28;20041;-85
2023/11/24 05:34:42;;;;;;;29.20;18.20;;;-4.90;99.90;;;;;;5103162;28;20096;-86
2023/11/24 05:37:08;;;;;;;32.30;17.23;;;-4.90;99.90;;;;;;5118009;27;20016;-85
2023/11/24 05:39:37;;;;;;;29.33;15.77;;;-4.90;99.90;;;;;;5099093;28;20134;-86
2023/11/24 05:42:04;;;;;;;31.88;18.33;;;-4.90;99.90;;;;;;5097704;28;20039;-87
2023/11/24 05:44:30;;;;;;;;;;;-4.90;99.90;;;;;;5097732;28;20397;-85
2023/11/24 05:46:56;;;;;;;27.42;17.10;;;-5.00;99.90;;;;;;5102011;28;19908;-85
2023/11/24 05:49:22;;;;;;;30.75;17.40;;;-5.00;99.90;;;;;;5115973;28;20127;-85
2023/11/24 05:51:48;;;;;;;37.60;20.05;;;-5.00;99.90;;;;;;5097651;28;20415;-87
2023/11/24 05:54:14;;;;;;;33.45;18.55;;;-5.00;99.90;;;;;;5100701;28;20054;-88
2023/11/24 05:56:40;;;;;;;31.40;17.80;;;-5.00;99.90;;;;;;5110907;28;20071;-85
2023/11/24 05:59:06;;;;;;;35.15;21.08;;;-5.00;99.90;;;;;;5120939;28;20019;-85
2023/11/24 06:01:33;;;;;;;33.10;18.00;;;-5.00;99.90;;;;;;5123081;28;20034;-84
2023/11/24 06:04:02;;;;;;;29.88;18.05;;;-5.10;99.90;;;;;;5111856;28;20342;-85
2023/11/24 06:06:28;;;;;;;31.20;16.52;;;-5.10;99.90;;;;;;5128304;28;20015;-86
2023/11/24 06:08:54;;;;;;;23.23;14.40;;;-5.10;99.90;;;;;;5103858;28;20019;-86
2023/11/24 06:11:20;;;;;;;31.45;16.60;;;-5.10;99.90;;;;;;5124516;28;20070;-86
2023/11/24 06:13:47;;;;;;;29.33;15.90;;;-5.20;99.90;;;;;;5100530;28;20118;-84
2023/11/24 06:16:14;;;;;;;25.00;16.00;;;-5.10;99.90;;;;;;5096407;28;20027;-87
2023/11/24 06:18:40;;;;;;;35.05;16.80;;;-5.00;99.90;;;;;;5115648;28;20073;-84
2023/11/24 06:21:10;;;;;;;30.83;20.80;;;-5.00;99.90;;;;;;5097296;28;20365;-86
2023/11/24 06:23:37;;;;;;;27.58;16.58;;;-5.00;99.90;;;;;;5103980;28;20036;-86
2023/11/24 06:26:03;;;;;;;35.33;19.63;;;-5.00;99.90;;;;;;5119186;28;20099;-85
2023/11/24 06:28:29;;;;;;;30.65;14.88;;;-5.00;99.90;;;;;;5112698;28;20465;-86
2023/11/24 06:30:55;;;;;;;33.50;20.08;;;-4.90;99.90;;;;;;5109016;28;20020;-86
2023/11/24 06:33:21;;;;;;;28.23;16.40;;;-4.80;99.90;;;;;;5085144;28;20027;-86
2023/11/24 06:35:47;;;;;;;26.77;14.52;;;-4.90;99.90;;;;;;5091058;28;20038;-88
2023/11/24 06:38:14;;;;;;;27.60;18.15;;;-4.90;99.90;;;;;;5114974;28;20053;-85
2023/11/24 06:40:40;;;;;;;;;;;-4.80;99.90;;;;;;5137554;28;20091;-85
2023/11/24 06:43:06;;;;;;;25.05;14.40;;;-4.80;99.90;;;;;;5129731;28;20272;-85
2023/11/24 06:45:32;;;;;;;28.30;16.00;;;-4.80;99.90;;;;;;5095220;28;20076;-85
2023/11/24 06:47:58;;;;;;;26.27;16.08;;;-4.80;99.90;;;;;;5085329;28;20136;-85
2023/11/24 06:50:25;;;;;;;27.50;16.65;;;-4.80;99.90;;;;;;5125832;28;20011;-84
2023/11/24 06:52:51;;;;;;;22.70;12.88;;;-4.70;99.90;;;;;;5134144;28;20079;-88
2023/11/24 06:55:17;;;;;;;27.02;14.23;;;-4.70;99.80;;;;;;5134908;28;20034;-88
2023/11/24 06:57:43;;;;;;;32.40;18.25;;;-4.70;99.90;;;;;;5100223;28;20028;-89
2023/11/24 07:00:16;;;;;;;36.88;25.42;;;-4.70;99.90;;;;;;5100989;28;20028;-87
2023/11/24 07:02:41;;;;;;;36.85;18.77;;;-4.60;99.90;;;;;;5089957;28;20476;-88
2023/11/24 07:05:09;;;;;;;28.92;20.13;;;-4.60;99.90;;;;;;5092088;28;20038;-87
2023/11/24 07:07:34;;;;;;;43.53;21.60;;;-4.60;99.90;;;;;;5111822;28;20380;-87
2023/11/24 07:10:00;;;;;;;39.13;23.38;;;-4.50;99.90;;;;;;5115732;28;20083;-87
2023/11/24 07:12:26;;;;;;;45.20;23.92;;;-4.60;99.90;;;;;;5127345;28;20007;-88
2023/11/24 07:14:52;;;;;;;32.72;19.77;;;-4.60;99.90;;;;;;5109967;28;20028;-87
2023/11/24 07:17:18;;;;;;;34.67;22.33;;;-4.50;99.90;;;;;;5103669;28;20019;-87
2023/11/24 07:19:44;;;;;;;32.88;19.85;;;-4.60;99.90;;;;;;5115684;27;20020;-86
2023/11/24 07:22:10;;;;;;;28.70;16.52;;;-4.50;99.80;;;;;;5111827;28;20329;-89
2023/11/24 07:24:42;;;;;;;25.55;14.75;;;-4.60;99.90;;;;;;5084000;28;20392;-85
2023/11/24 07:27:08;;;;;;;41.05;19.60;;;-4.60;99.90;;;;;;5083542;28;20037;-85
2023/11/24 07:29:34;;;;;;;33.38;21.33;;;-4.60;99.90;;;;;;5113322;28;20481;-89
2023/11/24 07:32:03;;;;;;;32.53;19.65;;;-4.50;99.80;;;;;;5110967;28;20183;-85
2023/11/24 07:34:32;;;;;;;36.83;20.13;;;-4.60;99.60;;;;;;5109291;28;20106;-91
2023/11/24 07:37:02;;;;;;;34.20;16.77;;;-4.50;99.70;;;;;;5103908;28;20088;-89
2023/11/24 07:39:31;;;;;;;36.30;21.55;;;-4.50;99.70;;;;;;5113890;28;20028;-90
2023/11/24 07:41:58;;;;;;;32.25;15.70;;;-4.40;99.70;;;;;;5106248;28;20020;-88
2023/11/24 07:44:27;;;;;;;38.03;22.43;;;-4.50;99.00;;;;;;5110720;28;20032;-86
2023/11/24 07:46:53;;;;;;;35.45;19.92;;;-4.50;99.10;;;;;;5117228;28;20095;-89
2023/11/24 07:49:19;;;;;;;34.10;20.52;;;-4.50;99.30;;;;;;5099840;28;20051;-85
2023/11/24 07:51:45;;;;;;;38.20;18.75;;;-4.50;99.30;;;;;;5112153;28;20038;-90
2023/11/24 07:54:11;;;;;;;39.85;19.25;;;-4.40;99.30;;;;;;5106005;28;20020;-87
2023/11/24 07:56:37;;;;;;;36.97;20.23;;;-4.30;99.30;;;;;;5115785;28;20027;-87
2023/11/24 07:59:02;;;;;;;37.97;19.73;;;-4.30;99.20;;;;;;5090338;28;20038;-87
2023/11/24 08:01:28;;;;;;;35.05;19.70;;;-4.20;98.80;;;;;;5132138;28;20028;-86
2023/11/24 08:03:55;;;;;;;36.08;23.73;;;-4.20;98.70;;;;;;5097441;28;20058;-89
2023/11/24 08:06:21;;;;;;;29.73;16.33;;;-4.20;98.30;;;;;;5098894;28;20024;-85
2023/11/24 08:08:46;;;;;;;35.03;18.98;;;-4.20;98.20;;;;;;5101839;28;20028;-85
2023/11/24 08:11:12;;;;;;;36.15;20.05;;;-4.20;98.40;;;;;;5103771;28;20070;-89
2023/11/24 08:13:38;;;;;;;40.53;19.83;;;-4.20;98.30;;;;;;5095529;28;20024;-84
2023/11/24 08:16:05;;;;;;;36.53;19.70;;;-4.20;97.90;;;;;;5118252;28;20046;-86
2023/11/24 08:18:31;;;;;;;36.50;19.10;;;-4.20;98.10;;;;;;5119521;28;20030;-88
2023/11/24 08:21:01;;;;;;;45.15;22.73;;;-4.10;98.70;;;;;;5121207;28;20034;-88
2023/11/24 08:23:27;;;;;;;32.13;20.27;;;-4.10;98.70;;;;;;5109826;28;20087;-90
2023/11/24 08:25:53;;;;;;;34.45;18.48;;;-4.00;98.70;;;;;;5113574;28;20038;-88
2023/11/24 08:28:19;;;;;;;31.75;16.80;;;-3.90;98.50;;;;;;5103425;28;20024;-89
2023/11/24 08:30:45;;;;;;;36.10;18.02;;;-3.90;98.20;;;;;;5112557;28;20016;-92
2023/11/24 08:33:11;;;;;;;36.35;18.40;;;-3.90;98.10;;;;;;5102072;28;20026;-87
2023/11/24 08:35:38;;;;;;;42.97;19.48;;;-3.90;98.20;;;;;;5121584;28;20024;-89
2023/11/24 08:38:04;;;;;;;37.60;18.40;;;-3.80;98.40;;;;;;5117474;28;20020;-88
2023/11/24 08:40:30;;;;;;;42.25;20.35;;;-3.80;98.50;;;;;;5120100;28;20125;-89
2023/11/24 08:42:57;;;;;;;40.25;20.90;;;-3.80;98.20;;;;;;5083315;28;20027;-86
2023/11/24 08:45:24;;;;;;;36.53;22.17;;;-3.80;98.10;;;;;;5118793;28;20054;-89
2023/11/24 08:47:51;;;;;;;33.63;20.45;;;-3.70;97.90;;;;;;5105238;28;20023;-92
2023/11/24 08:50:18;;;;;;;35.67;20.27;;;-3.70;98.00;;;;;;5126395;28;20023;-88
2023/11/24 08:52:47;;;;;;;34.20;18.65;;;-3.70;97.80;;;;;;5130092;28;20026;-89
2023/11/24 08:55:14;;;;;;;35.03;21.70;;;-3.70;97.70;;;;;;5129232;28;20081;-91
2023/11/24 08:57:40;;;;;;;33.97;17.75;;;-3.70;97.70;;;;;;5121269;28;20024;-89
2023/11/24 09:00:10;;;;;;;33.97;20.65;;;-3.70;98.00;;;;;;5136514;28;20480;-88
2023/11/24 09:02:37;;;;;;;38.17;18.42;;;-3.70;98.00;;;;;;5104277;28;20072;-90
2023/11/24 09:05:04;;;;;;;29.35;18.40;;;-3.60;98.20;;;;;;5101824;28;20035;-88
2023/11/24 09:07:36;;;;;;;35.50;19.23;;;-3.50;98.30;;;;;;5105427;28;20046;-91
2023/11/24 09:10:03;;;;;;;32.08;19.88;;;-3.50;98.00;;;;;;5084495;28;20029;-91
2023/11/24 09:12:31;;;;;;;38.33;21.70;;;-3.50;97.80;;;;;;5087786;28;20027;-90
2023/11/24 09:14:57;;;;;;;43.63;24.52;;;-3.50;97.90;;;;;;5102397;28;20019;-89
2023/11/24 09:17:23;;;;;;;30.60;18.92;;;-3.50;97.80;;;;;;5103966;28;20045;-89
2023/11/24 09:19:49;;;;;;;38.47;21.40;;;-3.50;98.10;;;;;;5113162;28;20020;-88
2023/11/24 09:22:15;;;;;;;36.78;19.85;;;-3.40;98.50;;;;;;5092046;28;20024;-87
2023/11/24 09:24:43;;;;;;;33.92;20.02;;;-3.30;98.30;;;;;;5088407;28;20097;-91
2023/11/24 09:27:08;;;;;;;;;;;-3.10;98.50;;;;;;5092217;28;20040;-87
2023/11/24 09:29:36;;;;;;;30.77;18.02;;;-3.00;98.20;;;;;;5103988;28;19911;-88
2023/11/24 09:32:02;;;;;;;29.05;17.75;;;-2.90;97.70;;;;;;5110477;28;20529;-88
2023/11/24 09:34:29;;;;;;;22.67;16.85;;;-2.90;97.80;;;;;;5104331;28;20046;-89
2023/11/24 09:36:55;;;;;;;29.38;16.23;;;-2.80;97.80;;;;;;5123642;28;20016;-89
2023/11/24 09:39:26;;;;;;;27.13;16.25;;;-2.70;97.30;;;;;;5095860;28;20028;-87
2023/11/24 09:41:52;;;;;;;27.67;17.58;;;-2.80;97.10;;;;;;5114596;28;20083;-86
2023/11/24 09:44:18;;;;;;;25.85;16.92;;;-2.90;97.20;;;;;;5097940;28;20500;-87
2023/11/24 09:46:47;;;;;;;31.20;20.58;;;-2.90;97.40;;;;;;5112858;28;20047;-86
2023/11/24 09:49:15;;;;;;;34.55;21.73;;;-2.90;97.10;;;;;;5122012;28;20062;-86
2023/11/24 09:51:42;;;;;;;34.80;21.17;;;-2.90;97.00;;;;;;5097279;28;20058;-87
2023/11/24 09:54:11;;;;;;;32.20;18.65;;;-2.90;97.00;;;;;;5133774;28;20011;-85
2023/11/24 09:56:42;;;;;;;28.20;18.70;;;-2.90;97.40;;;;;;5114562;28;20038;-86
2023/11/24 09:59:08;;;;;;;32.78;16.83;;;-2.80;97.40;;;;;;5102869;28;20023;-88
2023/11/24 10:01:38;;;;;;;26.88;15.93;;;-2.80;97.20;;;;;;5099238;28;20062;-86
2023/11/24 10:04:05;;;;;;;26.58;17.95;;;-2.80;97.00;;;;;;5117087;28;20059;-87
2023/11/24 10:06:38;;;;;;;35.70;18.08;;;-2.90;96.90;;;;;;5119240;28;20047;-87
2023/11/24 10:09:12;;;;;;;32.30;16.98;;;-2.90;96.20;;;;;;5115715;28;20042;-86
2023/11/24 10:11:39;;;;;;;30.67;17.50;;;-3.10;96.40;;;;;;5099553;28;20036;-88
2023/11/24 10:14:07;;;;;;;28.98;17.50;;;-3.10;96.80;;;;;;5106507;28;20035;-86
2023/11/24 10:16:39;;;;;;;33.00;18.25;;;-3.20;96.80;;;;;;5098208;28;20031;-86
2023/11/24 10:19:15;;;;;;;30.00;18.23;;;-3.20;96.80;;;;;;5095585;28;20024;-88
2023/11/24 10:21:45;;;;;;;29.98;17.75;;;-3.30;97.00;;;;;;5097108;28;20078;-88
2023/11/24 10:24:12;;;;;;;24.42;15.63;;;-3.30;97.00;;;;;;5117544;28;20024;-87
2023/11/24 10:26:40;;;;;;;;;;;-3.30;96.90;;;;;;5103338;28;20015;-87
2023/11/24 10:29:09;;;;;;;24.73;16.65;;;-3.30;97.00;;;;;;5104145;28;19999;-90
2023/11/24 10:31:36;;;;;;;26.42;18.48;;;-3.30;97.00;;;;;;5125649;28;20070;-88
2023/11/24 10:34:03;;;;;;;17.67;12.20;;;-3.30;97.20;;;;;;5090618;28;20020;-86
2023/11/24 10:36:29;;;;;;;;;;;-3.30;97.50;;;;;;5121386;28;20031;-87
2023/11/24 10:39:01;;;;;;;27.48;15.48;;;-3.30;97.60;;;;;;5106177;28;19990;-90
2023/11/24 10:41:28;;;;;;;30.92;18.77;;;-3.30;97.60;;;;;;5103374;28;20034;-84
2023/11/24 10:43:57;;;;;;;28.73;15.50;;;-3.30;97.40;;;;;;5099825;28;20044;-85
2023/11/24 10:46:27;;;;;;;27.77;17.75;;;-3.30;97.10;;;;;;5102079;28;20023;-84
2023/11/24 10:49:12;;;;;;;29.30;19.60;;;-3.30;97.50;;;;;;5136413;28;20019;-86
2023/11/24 10:52:00;;;;;;;29.50;17.80;;;-3.30;97.10;;;;;;5095940;28;20042;-85
2023/11/24 10:54:34;;;;;;;26.08;15.88;;;-3.30;97.00;;;;;;5083831;28;20040;-86
2023/11/24 10:57:02;;;;;;;28.30;16.98;;;-3.40;97.20;;;;;;5107076;28;20024;-87
2023/11/24 10:59:34;;;;;;;28.45;17.17;;;-3.40;97.50;;;;;;5116249;28;20020;-87
2023/11/24 11:02:06;;;;;;;33.45;17.17;;;-3.30;97.70;;;;;;5111211;28;20043;-88
2023/11/24 11:04:36;;;;;;;27.80;16.42;;;-3.30;97.50;;;;;;5096307;28;20066;-85
2023/11/24 11:07:27;;;;;;;27.42;18.05;;;-3.20;97.60;;;;;;5077285;28;20020;-89
2023/11/24 11:10:02;;;;;;;28.55;16.00;;;-3.30;97.30;;;;;;5077280;28;20055;-89
2023/11/24 11:12:48;;;;;;;24.10;16.42;;;-3.30;97.30;;;;;;5112449;28;20372;-87
2023/11/24 11:15:14;;;;;;;27.73;16.20;;;-3.20;97.30;;;;;;5087583;28;20019;-88
2023/11/24 11:17:41;;;;;;;26.17;15.90;;;-3.20;97.30;;;;;;5105621;28;20051;-89
2023/11/24 11:20:22;;;;;;;26.67;16.13;;;-3.10;97.20;;;;;;5114776;28;20131;-86
2023/11/24 11:22:59;;;;;;;22.08;13.65;;;-3.10;96.60;;;;;;5126974;28;20024;-88
2023/11/24 11:25:32;;;;;;;27.90;15.55;;;-3.20;96.60;;;;;;5124802;28;20031;-87
2023/11/24 11:28:17;;;;;;;27.95;15.60;;;-3.20;96.60;;;;;;5118673;28;20154;-88
2023/11/24 11:30:45;;;;;;;24.27;13.85;;;-3.20;96.60;;;;;;5133357;28;20040;-87
2023/11/24 11:33:14;;;;;;;28.95;16.45;;;-3.20;96.60;;;;;;5100404;28;20038;-89
2023/11/24 11:35:41;;;;;;;27.70;16.50;;;-3.20;96.60;;;;;;5126048;28;20000;-86
2023/11/24 11:38:10;;;;;;;28.52;16.02;;;-3.20;96.80;;;;;;5101092;28;20024;-85
2023/11/24 11:40:37;;;;;;;30.40;16.63;;;-3.30;96.20;;;;;;5103369;28;20024;-85
2023/11/24 11:43:12;;;;;;;27.98;18.42;;;-3.40;96.30;;;;;;5094621;28;20039;-86
2023/11/24 11:45:50;;;;;;;31.52;19.08;;;-3.50;96.50;;;;;;5114819;28;20561;-88
2023/11/24 11:48:17;;;;;;;25.83;14.07;;;-3.60;96.60;;;;;;5117907;28;20062;-88
2023/11/24 11:51:04;;;;;;;27.85;13.75;;;-3.60;97.10;;;;;;5099079;28;20034;-88
2023/11/24 11:53:31;;;;;;;27.70;17.50;;;-3.70;97.70;;;;;;5094608;28;20043;-88
2023/11/24 11:55:59;;;;;;;25.08;15.65;;;-3.70;97.80;;;;;;5114628;28;20024;-89
2023/11/24 11:58:27;;;;;;;27.35;16.63;;;-3.80;97.70;;;;;;5108426;28;20038;-85
2023/11/24 12:00:54;;;;;;;25.83;17.05;;;-3.70;97.70;;;;;;5120074;28;20016;-90
2023/11/24 12:03:21;;;;;;;29.27;17.95;;;-3.80;97.30;;;;;;5099817;28;20030;-86
2023/11/24 12:05:47;;;;;;;24.83;15.50;;;-3.80;97.40;;;;;;5087273;28;20388;-82
2023/11/24 12:08:17;;;;;;;22.88;14.25;;;-3.90;97.50;;;;;;5105206;28;20024;-87
2023/11/24 12:10:44;;;;;;;28.17;16.58;;;-3.90;97.70;;;;;;5115676;28;20088;-88
2023/11/24 12:13:10;;;;;;;29.55;16.73;;;-3.80;97.80;;;;;;5098416;28;20028;-90
2023/11/24 12:15:36;;;;;;;24.38;12.27;;;-3.80;97.90;;;;;;5115241;28;20035;-87
2023/11/24 12:18:05;;;;;;;31.50;17.05;;;-3.70;98.10;;;;;;5116780;28;20027;-88
2023/11/24 12:20:34;;;;;;;31.42;19.77;;;-3.70;98.20;;;;;;5117266;28;20020;-88
2023/11/24 12:23:00;;;;;;;28.48;16.95;;;-3.70;98.20;;;;;;5098412;28;20024;-87
2023/11/24 12:25:27;;;;;;;26.08;16.10;;;-3.70;98.10;;;;;;5113602;28;20153;-85
2023/11/24 12:27:57;;;;;;;25.97;17.43;;;-3.80;98.20;;;;;;5096298;28;20042;-91
2023/11/24 12:30:23;;;;;;;30.73;18.30;;;-3.80;98.20;;;;;;5080762;28;20066;-93
2023/11/24 12:32:52;;;;;;;28.85;15.82;;;-3.80;98.20;;;;;;5093308;28;20077;-91